Time,TemperatureF,DewpointF,PressureIn,WindDirection,WindDirectionDegrees,WindSpeedMPH,WindSpeedGustMPH,Humidity,HourlyPrecipIn,Conditions,Clouds,dailyrainin,SoftwareType,DateUTC
2013-03-09 00:01:00,60.5,56.3,30.00,SE,135,4.5,4.5,86,0.00,,---,0.00,VWS V14.01,2013-03-09 06:01:00,
2013-03-09 00:06:00,60.5,56.3,30.00,ESE,112,5.4,6.9,86,0.00,,---,0.00,VWS V14.01,2013-03-09 06:06:00,
2013-03-09 00:11:00,60.5,56.3,30.00,ESE,112,10.5,10.5,86,0.00,,---,0.00,VWS V14.01,2013-03-09 06:11:00,
2013-03-09 00:16:00,60.5,56.3,30.00,East,90,7.6,7.6,86,0.00,,---,0.00,VWS V14.01,2013-03-09 06:16:00,
2013-03-09 00:21:00,60.5,56.0,29.97,East,90,7.6,7.6,85,0.00,,---,0.00,VWS V14.01,2013-03-09 06:21:00,
2013-03-09 00:26:00,60.7,56.2,29.97,East,90,7.6,7.6,85,0.00,,---,0.00,VWS V14.01,2013-03-09 06:26:00,
2013-03-09 00:31:00,60.5,56.3,29.97,East,90,7.6,7.6,86,0.00,,---,0.00,VWS V14.01,2013-03-09 06:31:00,
2013-03-09 00:36:00,60.5,56.3,30.00,East,90,7.6,7.6,86,0.00,,---,0.00,VWS V14.01,2013-03-09 06:36:00,
2013-03-09 00:41:00,60.5,56.3,30.00,East,90,7.6,7.6,86,0.00,,---,0.00,VWS V14.01,2013-03-09 06:41:00,
2013-03-09 00:46:00,60.5,56.3,30.00,East,90,7.6,7.6,86,0.00,,---,0.00,VWS V14.01,2013-03-09 06:46:00,
2013-03-09 00:51:00,60.5,56.3,30.00,East,90,7.6,7.6,86,0.00,,---,0.00,VWS V14.01,2013-03-09 06:51:00,
2013-03-09 00:56:00,60.5,56.3,30.00,East,90,7.6,7.6,86,0.00,,---,0.00,VWS V14.01,2013-03-09 06:56:00,
2013-03-09 01:01:00,60.7,56.5,30.00,East,90,7.6,7.6,86,0.00,,---,0.00,VWS V14.01,2013-03-09 07:01:00,
2013-03-09 01:06:00,60.7,56.5,29.97,East,90,7.6,7.6,86,0.00,,---,0.00,VWS V14.01,2013-03-09 07:06:00,
2013-03-09 01:11:00,60.7,56.8,29.97,East,90,7.6,7.6,87,0.00,,---,0.00,VWS V14.01,2013-03-09 07:11:00,
2013-03-09 01:16:00,60.7,56.8,29.97,East,90,7.6,7.6,87,0.00,,---,0.00,VWS V14.01,2013-03-09 07:16:00,
2013-03-09 01:21:00,60.7,56.8,29.97,East,90,7.6,7.6,87,0.00,,---,0.00,VWS V14.01,2013-03-09 07:21:00,
2013-03-09 01:26:00,60.7,56.8,29.97,East,90,7.6,7.6,87,0.00,,---,0.00,VWS V14.01,2013-03-09 07:26:00,
2013-03-09 01:31:00,60.7,56.8,29.97,East,90,7.6,7.6,87,0.00,,---,0.00,VWS V14.01,2013-03-09 07:31:00,
2013-03-09 01:36:00,60.7,56.8,29.97,East,90,7.6,7.6,87,0.00,,---,0.00,VWS V14.01,2013-03-09 07:36:00,
2013-03-09 01:41:00,60.7,57.1,29.97,East,90,7.6,7.6,88,0.00,,---,0.00,VWS V14.01,2013-03-09 07:41:00,
2013-03-09 01:46:00,60.5,57.0,29.97,SSW,202,10.3,11.9,88,0.00,,---,0.00,VWS V14.01,2013-03-09 07:46:00,
2013-03-09 01:51:00,60.5,57.0,29.94,SSE,158,9.8,9.8,88,0.00,,---,0.00,VWS V14.01,2013-03-09 07:51:00,
2013-03-09 01:56:00,60.5,57.0,29.94,SSE,158,6.9,6.9,88,0.00,,---,0.00,VWS V14.01,2013-03-09 07:56:00,
2013-03-09 02:01:00,60.3,57.1,29.94,SSE,158,4.0,7.4,89,0.00,,---,0.00,VWS V14.01,2013-03-09 08:01:00,
2013-03-09 02:06:00,60.3,57.1,29.94,SE,135,7.6,7.6,89,0.00,,---,0.00,VWS V14.01,2013-03-09 08:06:00,
2013-03-09 02:11:00,60.3,57.1,29.94,SE,135,7.6,7.6,89,0.00,,---,0.00,VWS V14.01,2013-03-09 08:11:00,
2013-03-09 02:16:00,60.3,57.1,29.94,SE,135,7.6,7.6,89,0.00,,---,0.00,VWS V14.01,2013-03-09 08:16:00,
2013-03-09 02:21:00,60.3,57.4,29.91,SE,135,7.6,7.6,90,0.00,,---,0.00,VWS V14.01,2013-03-09 08:21:00,
2013-03-09 02:26:00,60.3,57.4,29.91,SE,135,7.6,7.6,90,0.00,,---,0.00,VWS V14.01,2013-03-09 08:26:00,
2013-03-09 02:31:00,60.3,57.4,29.91,SE,135,7.6,7.6,90,0.00,,---,0.00,VWS V14.01,2013-03-09 08:31:00,
2013-03-09 02:36:00,60.3,57.4,29.94,SE,135,6.3,6.5,90,0.00,,---,0.00,VWS V14.01,2013-03-09 08:36:00,
2013-03-09 02:41:00,60.3,57.4,29.94,SE,135,6.3,11.2,90,0.00,,---,0.00,VWS V14.01,2013-03-09 08:41:00,
2013-03-09 02:46:00,60.3,57.4,29.94,SE,135,5.6,10.3,90,0.00,,---,0.00,VWS V14.01,2013-03-09 08:46:00,
2013-03-09 02:51:00,60.5,57.6,29.94,SE,135,5.4,7.8,90,0.00,,---,0.00,VWS V14.01,2013-03-09 08:51:00,
2013-03-09 02:56:00,60.5,57.6,29.94,SSE,158,7.8,7.8,90,0.00,,---,0.00,VWS V14.01,2013-03-09 08:56:00,
2013-03-09 03:01:00,60.5,57.6,29.94,SE,135,8.7,8.7,90,0.00,,---,0.00,VWS V14.01,2013-03-09 09:01:00,
2013-03-09 03:06:00,60.5,57.6,29.94,SSE,158,4.0,7.4,90,0.00,,---,0.00,VWS V14.01,2013-03-09 09:06:00,
2013-03-09 03:11:00,60.5,57.6,29.94,ESE,112,9.8,9.8,90,0.00,,---,0.00,VWS V14.01,2013-03-09 09:11:00,
2013-03-09 03:16:00,60.7,57.8,29.94,ESE,112,6.0,6.0,90,0.00,,---,0.00,VWS V14.01,2013-03-09 09:16:00,
2013-03-09 03:21:00,60.7,57.8,29.94,South,180,7.6,8.1,90,0.00,,---,0.00,VWS V14.01,2013-03-09 09:21:00,
2013-03-09 03:27:00,60.7,57.8,29.94,SE,135,7.4,10.5,90,0.00,,---,0.00,VWS V14.01,2013-03-09 09:27:00,
2013-03-09 03:32:00,60.9,57.9,29.94,SE,135,7.4,7.4,90,0.00,,---,0.00,VWS V14.01,2013-03-09 09:32:00,
2013-03-09 03:37:00,60.9,57.9,29.91,SE,135,7.4,7.4,90,0.00,,---,0.00,VWS V14.01,2013-03-09 09:37:00,
2013-03-09 03:41:00,60.9,57.9,29.91,SE,135,7.4,7.4,90,0.00,,---,0.00,VWS V14.01,2013-03-09 09:41:00,
2013-03-09 03:47:00,60.9,57.9,29.91,SE,135,7.4,7.4,90,0.00,,---,0.00,VWS V14.01,2013-03-09 09:47:00,
2013-03-09 03:52:00,61.0,58.1,29.91,SE,135,7.4,7.4,90,0.00,,---,0.00,VWS V14.01,2013-03-09 09:52:00,
2013-03-09 03:57:00,61.0,57.8,29.91,SE,135,7.4,7.4,89,0.00,,---,0.00,VWS V14.01,2013-03-09 09:57:00,
2013-03-09 04:02:00,61.0,57.8,29.91,SE,135,7.4,7.4,89,0.00,,---,0.00,VWS V14.01,2013-03-09 10:02:00,
2013-03-09 04:07:00,61.0,57.8,29.88,East,90,3.6,6.0,89,0.00,,---,0.00,VWS V14.01,2013-03-09 10:07:00,
2013-03-09 04:12:00,61.0,58.1,29.88,East,90,4.9,8.7,90,0.00,,---,0.00,VWS V14.01,2013-03-09 10:12:00,
2013-03-09 04:17:00,61.0,58.1,29.88,East,90,4.0,8.1,90,0.00,,---,0.00,VWS V14.01,2013-03-09 10:17:00,
2013-03-09 04:22:00,61.0,58.1,29.88,East,90,3.8,6.5,90,0.00,,---,0.00,VWS V14.01,2013-03-09 10:22:00,
2013-03-09 04:27:00,61.2,58.3,29.88,SE,135,5.4,6.5,90,0.00,,---,0.00,VWS V14.01,2013-03-09 10:27:00,
2013-03-09 04:32:00,61.2,58.3,29.88,East,90,5.4,10.1,90,0.00,,---,0.00,VWS V14.01,2013-03-09 10:32:00,
2013-03-09 04:37:00,61.2,58.3,29.88,SE,135,5.4,6.5,90,0.00,,---,0.00,VWS V14.01,2013-03-09 10:37:00,
2013-03-09 04:42:00,61.2,58.3,29.88,ESE,112,2.9,5.8,90,0.00,,---,0.00,VWS V14.01,2013-03-09 10:42:00,
2013-03-09 04:47:00,61.2,58.3,29.88,SE,135,7.4,8.1,90,0.00,,---,0.00,VWS V14.01,2013-03-09 10:47:00,
2013-03-09 04:52:00,61.4,58.5,29.88,SE,135,5.4,6.5,90,0.00,,---,0.00,VWS V14.01,2013-03-09 10:52:00,
2013-03-09 04:57:00,61.4,58.5,29.88,SSE,158,4.9,7.6,90,0.00,,---,0.00,VWS V14.01,2013-03-09 10:57:00,
2013-03-09 05:02:00,61.4,58.5,29.88,ESE,112,6.5,6.5,90,0.00,,---,0.00,VWS V14.01,2013-03-09 11:02:00,
2013-03-09 05:07:00,61.4,58.8,29.88,SE,135,5.8,10.1,91,0.00,,---,0.00,VWS V14.01,2013-03-09 11:07:00,
2013-03-09 05:12:00,61.4,58.8,29.88,ESE,112,6.5,8.5,91,0.00,,---,0.00,VWS V14.01,2013-03-09 11:12:00,
2013-03-09 05:17:00,61.4,58.8,29.88,ESE,112,6.5,6.5,91,0.00,,---,0.00,VWS V14.01,2013-03-09 11:17:00,
2013-03-09 05:22:00,61.4,58.8,29.88,ESE,112,6.5,6.5,91,0.00,,---,0.00,VWS V14.01,2013-03-09 11:22:00,
2013-03-09 05:27:00,61.4,58.8,29.88,ESE,112,6.5,6.5,91,0.00,,---,0.00,VWS V14.01,2013-03-09 11:27:00,
2013-03-09 05:32:00,61.6,58.9,29.88,ESE,112,6.5,6.5,91,0.00,,---,0.00,VWS V14.01,2013-03-09 11:32:00,
2013-03-09 05:37:00,61.6,58.9,29.88,ESE,112,6.5,6.5,91,0.00,,---,0.00,VWS V14.01,2013-03-09 11:37:00,
2013-03-09 05:42:00,61.6,58.9,29.88,ESE,112,6.5,6.5,91,0.00,,---,0.00,VWS V14.01,2013-03-09 11:42:00,
2013-03-09 05:47:00,61.8,59.1,29.88,SSE,158,8.5,9.6,91,0.00,,---,0.00,VWS V14.01,2013-03-09 11:47:00,
2013-03-09 05:52:00,61.8,59.1,29.88,South,180,7.6,10.5,91,0.00,,---,0.00,VWS V14.01,2013-03-09 11:52:00,
2013-03-09 05:57:00,61.8,59.1,29.88,SE,135,8.1,8.1,91,0.00,,---,0.00,VWS V14.01,2013-03-09 11:57:00,
2013-03-09 06:02:00,61.8,59.1,29.88,SE,135,7.2,9.6,91,0.00,,---,0.00,VWS V14.01,2013-03-09 12:02:00,
2013-03-09 06:07:00,61.8,59.1,29.85,SE,135,10.7,10.7,91,0.00,,---,0.00,VWS V14.01,2013-03-09 12:07:00,
2013-03-09 06:12:00,61.9,59.3,29.85,South,180,7.2,8.1,91,0.00,,---,0.00,VWS V14.01,2013-03-09 12:12:00,
2013-03-09 06:17:00,61.9,59.3,29.85,SE,135,9.6,9.6,91,0.00,,---,0.00,VWS V14.01,2013-03-09 12:17:00,
2013-03-09 06:22:00,61.9,59.3,29.88,South,180,7.6,11.2,91,0.00,,---,0.00,VWS V14.01,2013-03-09 12:22:00,
2013-03-09 06:27:00,61.9,59.3,29.88,SSE,158,7.6,10.3,91,0.00,,---,0.00,VWS V14.01,2013-03-09 12:27:00,
2013-03-09 06:32:00,61.9,59.3,29.88,SSE,158,6.5,9.4,91,0.00,,---,0.00,VWS V14.01,2013-03-09 12:32:00,
2013-03-09 06:37:00,61.9,59.3,29.88,SSW,202,5.6,5.6,91,0.00,,---,0.00,VWS V14.01,2013-03-09 12:37:00,
2013-03-09 06:42:00,61.9,59.3,29.88,ESE,112,8.5,10.5,91,0.00,,---,0.00,VWS V14.01,2013-03-09 12:42:00,
2013-03-09 06:47:00,61.9,59.3,29.88,SSE,158,9.6,9.6,91,0.00,,---,0.00,VWS V14.01,2013-03-09 12:47:00,
2013-03-09 06:52:00,61.9,59.3,29.88,SSE,158,5.8,14.8,91,0.00,,---,0.00,VWS V14.01,2013-03-09 12:52:00,
2013-03-09 06:57:00,61.9,59.3,29.88,SE,135,5.8,8.5,91,0.00,,---,0.00,VWS V14.01,2013-03-09 12:57:00,
2013-03-09 07:02:00,61.9,59.3,29.88,SE,135,5.8,8.7,91,0.00,,---,0.00,VWS V14.01,2013-03-09 13:02:00,
2013-03-09 07:07:00,62.1,59.5,29.88,SSE,158,7.6,7.8,91,0.00,,---,0.00,VWS V14.01,2013-03-09 13:07:00,
2013-03-09 07:12:00,62.1,59.5,29.88,SE,135,4.7,10.1,91,0.00,,---,0.00,VWS V14.01,2013-03-09 13:12:00,
2013-03-09 07:17:00,62.1,59.5,29.88,SE,135,3.8,8.7,91,0.00,,---,0.00,VWS V14.01,2013-03-09 13:17:00,
2013-03-09 07:22:00,62.3,59.6,29.88,SE,135,10.1,12.8,91,0.00,,---,0.00,VWS V14.01,2013-03-09 13:22:00,
2013-03-09 07:27:00,62.3,59.6,29.88,SSE,158,5.4,7.4,91,0.00,,---,0.00,VWS V14.01,2013-03-09 13:27:00,
2013-03-09 07:32:00,62.3,59.6,29.88,SE,135,5.8,9.8,91,0.00,,---,0.00,VWS V14.01,2013-03-09 13:32:00,
2013-03-09 07:37:00,62.5,59.5,29.88,SSE,158,10.7,10.7,90,0.00,,---,0.00,VWS V14.01,2013-03-09 13:37:00,
2013-03-09 07:42:00,62.6,59.7,29.88,SSE,158,10.1,10.1,90,0.00,,---,0.00,VWS V14.01,2013-03-09 13:42:00,
2013-03-09 07:47:00,62.8,59.8,29.88,SE,135,11.9,12.5,90,0.00,,---,0.00,VWS V14.01,2013-03-09 13:47:00,
2013-03-09 07:52:00,63.0,60.0,29.88,SE,135,10.3,10.3,90,0.00,,---,0.00,VWS V14.01,2013-03-09 13:52:00,
2013-03-09 07:57:00,63.0,59.7,29.88,South,180,5.4,9.8,89,0.00,,---,0.00,VWS V14.01,2013-03-09 13:57:00,
2013-03-09 08:02:00,63.0,59.7,29.88,SE,135,7.6,7.6,89,0.00,,---,0.00,VWS V14.01,2013-03-09 14:02:00,
2013-03-09 08:07:00,63.2,59.9,29.88,SE,135,7.6,7.6,89,0.00,,---,0.00,VWS V14.01,2013-03-09 14:07:00,
2013-03-09 08:12:00,63.2,59.9,29.88,SE,135,7.6,7.6,89,0.00,,---,0.00,VWS V14.01,2013-03-09 14:12:00,
2013-03-09 08:17:00,63.2,59.9,29.88,SE,135,7.6,7.6,89,0.00,,---,0.00,VWS V14.01,2013-03-09 14:17:00,
2013-03-09 08:22:00,63.3,60.1,29.88,SE,135,7.6,7.6,89,0.00,,---,0.00,VWS V14.01,2013-03-09 14:22:00,
2013-03-09 08:26:00,63.3,60.1,29.88,SE,135,7.6,7.6,89,0.00,,---,0.00,VWS V14.01,2013-03-09 14:26:00,
2013-03-09 08:32:00,63.3,60.1,29.88,SE,135,7.6,7.6,89,0.00,,---,0.00,VWS V14.01,2013-03-09 14:32:00,
2013-03-09 08:37:00,63.5,60.2,29.88,SE,135,7.6,7.6,89,0.00,,---,0.00,VWS V14.01,2013-03-09 14:37:00,
2013-03-09 08:42:00,63.7,60.1,29.88,SSE,158,6.9,11.0,88,0.00,,---,0.00,VWS V14.01,2013-03-09 14:42:00,
2013-03-09 08:47:00,63.7,60.1,29.88,SE,135,6.5,6.5,88,0.00,,---,0.00,VWS V14.01,2013-03-09 14:47:00,
2013-03-09 08:52:00,63.9,60.3,29.88,SE,135,6.5,6.5,88,0.00,,---,0.00,VWS V14.01,2013-03-09 14:52:00,
2013-03-09 08:57:00,63.9,60.3,29.88,SE,135,6.5,6.5,88,0.00,,---,0.00,VWS V14.01,2013-03-09 14:57:00,
2013-03-09 09:02:00,64.1,60.4,29.88,SE,135,6.5,6.5,88,0.00,,---,0.00,VWS V14.01,2013-03-09 15:02:00,
2013-03-09 09:07:00,64.1,60.1,29.88,SE,135,6.5,6.5,87,0.00,,---,0.00,VWS V14.01,2013-03-09 15:07:00,
2013-03-09 09:12:00,64.2,60.3,29.88,SE,135,6.5,6.5,87,0.00,,---,0.00,VWS V14.01,2013-03-09 15:12:00,
2013-03-09 09:17:00,64.4,60.5,29.88,SE,135,6.5,6.5,87,0.00,,---,0.00,VWS V14.01,2013-03-09 15:17:00,
2013-03-09 09:22:00,64.4,60.5,29.88,SE,135,6.5,6.5,87,0.00,,---,0.00,VWS V14.01,2013-03-09 15:22:00,
2013-03-09 09:27:00,64.6,60.6,29.88,SE,135,6.5,6.5,87,0.00,,---,0.00,VWS V14.01,2013-03-09 15:27:00,
2013-03-09 09:32:00,64.8,60.5,29.88,SE,135,6.5,6.5,86,0.00,,---,0.00,VWS V14.01,2013-03-09 15:32:00,
2013-03-09 09:37:00,64.8,60.5,29.88,SE,135,6.5,6.5,86,0.00,,---,0.00,VWS V14.01,2013-03-09 15:37:00,
2013-03-09 09:42:00,65.1,60.5,29.88,SE,135,6.5,6.5,85,0.00,,---,0.00,VWS V14.01,2013-03-09 15:42:00,
2013-03-09 09:47:00,65.3,60.7,29.88,SE,135,6.5,6.5,85,0.00,,---,0.00,VWS V14.01,2013-03-09 15:47:00,
2013-03-09 09:52:00,65.5,60.5,29.88,SE,135,6.5,6.5,84,0.00,,---,0.00,VWS V14.01,2013-03-09 15:52:00,
2013-03-09 09:57:00,65.7,60.4,29.88,SE,135,12.1,12.8,83,0.00,,---,0.00,VWS V14.01,2013-03-09 15:57:00,
2013-03-09 10:02:00,65.5,60.2,29.88,SE,135,10.3,12.3,83,0.00,,---,0.00,VWS V14.01,2013-03-09 16:02:00,
2013-03-09 10:07:00,65.5,60.2,29.88,SE,135,12.8,12.8,83,0.00,,---,0.00,VWS V14.01,2013-03-09 16:07:00,
2013-03-09 10:12:00,65.7,60.7,29.88,SE,135,12.8,12.8,84,0.00,,---,0.00,VWS V14.01,2013-03-09 16:12:00,
2013-03-09 10:17:00,65.7,60.7,29.88,SE,135,12.8,12.8,84,0.00,,---,0.00,VWS V14.01,2013-03-09 16:17:00,
2013-03-09 10:22:00,65.8,60.5,29.88,SE,135,12.8,12.8,83,0.00,,---,0.00,VWS V14.01,2013-03-09 16:22:00,
2013-03-09 10:27:00,65.8,60.5,29.88,SE,135,12.8,12.8,83,0.00,,---,0.00,VWS V14.01,2013-03-09 16:27:00,
2013-03-09 10:32:00,66.0,60.7,29.88,SE,135,12.8,12.8,83,0.00,,---,0.00,VWS V14.01,2013-03-09 16:32:00,
2013-03-09 10:37:00,66.0,60.7,29.88,SE,135,12.8,12.8,83,0.00,,---,0.00,VWS V14.01,2013-03-09 16:37:00,
2013-03-09 10:42:00,66.0,60.7,29.88,SE,135,12.8,12.8,83,0.00,,---,0.00,VWS V14.01,2013-03-09 16:42:00,
2013-03-09 10:47:00,66.0,60.4,29.88,SE,135,12.8,12.8,82,0.00,,---,0.00,VWS V14.01,2013-03-09 16:47:00,
2013-03-09 10:52:00,66.2,60.5,29.88,SE,135,12.8,12.8,82,0.00,,---,0.00,VWS V14.01,2013-03-09 16:52:00,
2013-03-09 10:57:00,66.4,60.7,29.88,SE,135,12.8,12.8,82,0.00,,---,0.00,VWS V14.01,2013-03-09 16:57:00,
2013-03-09 11:02:00,66.4,60.7,29.88,SE,135,12.8,12.8,82,0.00,,---,0.00,VWS V14.01,2013-03-09 17:02:00,
2013-03-09 11:07:00,66.4,60.7,29.85,SSE,158,9.8,9.8,82,0.00,,---,0.00,VWS V14.01,2013-03-09 17:07:00,
2013-03-09 11:12:00,66.4,60.7,29.85,SSE,158,8.7,8.7,82,0.00,,---,0.00,VWS V14.01,2013-03-09 17:12:00,
2013-03-09 11:17:00,66.4,60.7,29.85,SSE,158,8.7,8.7,82,0.00,,---,0.00,VWS V14.01,2013-03-09 17:17:00,
2013-03-09 11:22:00,66.2,60.5,29.88,SSE,158,8.7,8.7,82,0.00,,---,0.00,VWS V14.01,2013-03-09 17:22:00,
2013-03-09 11:27:00,66.4,60.7,29.88,SSE,158,8.7,8.7,82,0.00,,---,0.00,VWS V14.01,2013-03-09 17:27:00,
2013-03-09 11:32:00,66.2,60.5,29.88,SSE,158,8.7,8.7,82,0.00,,---,0.00,VWS V14.01,2013-03-09 17:32:00,
2013-03-09 11:37:00,66.2,60.9,29.88,SSE,158,8.7,8.7,83,0.00,,---,0.00,VWS V14.01,2013-03-09 17:37:00,
2013-03-09 11:42:00,66.2,60.9,29.88,SSE,158,8.7,8.7,83,0.00,,---,0.00,VWS V14.01,2013-03-09 17:42:00,
2013-03-09 11:47:00,66.2,60.9,29.88,SSE,158,8.7,8.7,83,0.00,,---,0.00,VWS V14.01,2013-03-09 17:47:00,
2013-03-09 11:52:00,66.2,60.9,29.85,SSE,158,8.7,8.7,83,0.00,,---,0.00,VWS V14.01,2013-03-09 17:52:00,
2013-03-09 11:57:00,66.2,60.9,29.85,SSE,158,8.7,8.7,83,0.00,,---,0.00,VWS V14.01,2013-03-09 17:57:00,
2013-03-09 12:02:00,66.2,61.2,29.85,South,180,10.5,10.5,84,0.00,,---,0.00,VWS V14.01,2013-03-09 18:02:00,
2013-03-09 12:07:00,66.2,61.2,29.88,South,180,6.5,7.8,84,0.00,,---,0.00,VWS V14.01,2013-03-09 18:07:00,
2013-03-09 12:12:00,66.4,61.4,29.88,ESE,112,8.1,8.1,84,0.00,,---,0.00,VWS V14.01,2013-03-09 18:12:00,
2013-03-09 12:17:00,66.4,61.4,29.88,SE,135,5.6,7.2,84,0.00,,---,0.00,VWS V14.01,2013-03-09 18:17:00,
2013-03-09 12:22:00,66.2,61.2,29.85,SE,135,4.7,5.4,84,0.00,,---,0.00,VWS V14.01,2013-03-09 18:22:00,
2013-03-09 12:27:00,66.2,61.2,29.85,South,180,7.6,7.6,84,0.00,,---,0.00,VWS V14.01,2013-03-09 18:27:00,
2013-03-09 12:32:00,66.2,61.2,29.85,South,180,7.6,7.6,84,0.00,,---,0.00,VWS V14.01,2013-03-09 18:32:00,
2013-03-09 12:37:00,66.2,61.2,29.85,South,180,7.6,7.6,84,0.00,,---,0.00,VWS V14.01,2013-03-09 18:37:00,
2013-03-09 12:42:00,66.2,61.2,29.85,South,180,7.6,7.6,84,0.00,,---,0.00,VWS V14.01,2013-03-09 18:42:00,
2013-03-09 12:47:00,66.0,61.4,29.85,South,180,7.6,7.6,85,0.00,,---,0.00,VWS V14.01,2013-03-09 18:47:00,
2013-03-09 12:52:00,66.0,61.4,29.85,South,180,7.6,7.6,85,0.00,,---,0.00,VWS V14.01,2013-03-09 18:52:00,
2013-03-09 12:57:00,66.0,61.4,29.85,South,180,7.6,7.6,85,0.00,,---,0.00,VWS V14.01,2013-03-09 18:57:00,
2013-03-09 13:02:00,66.0,61.4,29.85,South,180,7.6,7.6,85,0.00,,---,0.00,VWS V14.01,2013-03-09 19:02:00,
2013-03-09 13:07:00,66.0,61.7,29.82,South,180,7.6,7.6,86,0.00,,---,0.00,VWS V14.01,2013-03-09 19:07:00,
2013-03-09 13:12:00,65.8,61.5,29.82,South,180,7.6,7.6,86,0.00,,---,0.00,VWS V14.01,2013-03-09 19:12:00,
2013-03-09 13:17:00,65.8,61.5,29.82,South,180,7.6,7.6,86,0.00,,---,0.00,VWS V14.01,2013-03-09 19:17:00,
2013-03-09 13:22:00,66.0,61.7,29.79,South,180,7.6,7.6,86,0.00,,---,0.00,VWS V14.01,2013-03-09 19:22:00,
2013-03-09 13:27:00,66.0,61.7,29.79,South,180,7.6,7.6,86,0.00,,---,0.00,VWS V14.01,2013-03-09 19:27:00,
2013-03-09 13:32:00,66.0,61.7,29.79,South,180,7.6,7.6,86,0.00,,---,0.00,VWS V14.01,2013-03-09 19:32:00,
2013-03-09 13:37:00,66.2,61.9,29.79,South,180,7.6,7.6,86,0.00,,---,0.00,VWS V14.01,2013-03-09 19:37:00,
2013-03-09 13:42:00,66.2,61.9,29.79,South,180,7.6,7.6,86,0.00,,---,0.00,VWS V14.01,2013-03-09 19:42:00,
2013-03-09 13:47:00,66.4,61.7,29.79,South,180,7.6,7.6,85,0.00,,---,0.00,VWS V14.01,2013-03-09 19:47:00,
2013-03-09 13:52:00,66.5,61.9,29.82,South,180,7.6,7.6,85,0.00,,---,0.00,VWS V14.01,2013-03-09 19:52:00,
2013-03-09 13:57:00,66.5,61.9,29.82,South,180,7.6,7.6,85,0.00,,---,0.00,VWS V14.01,2013-03-09 19:57:00,
2013-03-09 14:02:00,66.5,61.9,29.82,South,180,7.6,7.6,85,0.00,,---,0.00,VWS V14.01,2013-03-09 20:02:00,
2013-03-09 14:07:00,66.7,62.1,29.82,SE,135,7.6,7.6,85,0.00,,---,0.00,VWS V14.01,2013-03-09 20:07:00,
2013-03-09 14:13:00,66.9,62.2,29.82,SSE,158,6.5,10.3,85,0.00,,---,0.00,VWS V14.01,2013-03-09 20:13:00,
2013-03-09 14:18:00,66.9,61.9,29.82,South,180,3.6,3.6,84,0.00,,---,0.00,VWS V14.01,2013-03-09 20:18:00,
2013-03-09 14:23:00,66.9,62.2,29.79,South,180,3.6,3.6,85,0.00,,---,0.00,VWS V14.01,2013-03-09 20:23:00,
2013-03-09 14:28:00,66.9,62.2,29.79,South,180,3.6,3.6,85,0.00,,---,0.00,VWS V14.01,2013-03-09 20:28:00,
2013-03-09 14:33:00,67.1,62.1,29.79,SE,135,4.7,8.1,84,0.00,,---,0.00,VWS V14.01,2013-03-09 20:33:00,
2013-03-09 14:38:00,67.1,62.1,29.79,South,180,10.5,10.5,84,0.00,,---,0.00,VWS V14.01,2013-03-09 20:38:00,
2013-03-09 14:43:00,67.2,61.9,29.79,SE,135,7.6,7.6,83,0.00,,---,0.00,VWS V14.01,2013-03-09 20:43:00,
2013-03-09 14:48:00,67.2,61.9,29.79,ESE,112,10.5,10.5,83,0.00,,---,0.00,VWS V14.01,2013-03-09 20:48:00,
2013-03-09 14:53:00,67.4,62.1,29.79,SE,135,5.4,5.4,83,0.00,,---,0.00,VWS V14.01,2013-03-09 20:53:00,
2013-03-09 14:58:00,67.8,62.1,29.79,SE,135,6.3,6.3,82,0.00,,---,0.00,VWS V14.01,2013-03-09 20:58:00,
2013-03-09 15:03:00,67.8,62.1,29.79,SSE,158,5.6,7.4,82,0.00,,---,0.00,VWS V14.01,2013-03-09 21:03:00,
2013-03-09 15:08:00,68.1,62.4,29.76,SSW,202,6.0,10.7,82,0.00,,---,0.00,VWS V14.01,2013-03-09 21:08:00,
2013-03-09 15:13:00,69.0,62.6,29.76,South,180,4.9,11.0,80,0.00,,---,0.00,VWS V14.01,2013-03-09 21:13:00,
2013-03-09 15:18:00,69.9,62.8,29.76,SE,135,11.9,11.9,78,0.00,,---,0.00,VWS V14.01,2013-03-09 21:18:00,
2013-03-09 15:23:00,69.9,62.8,29.76,South,180,8.1,8.1,78,0.00,,---,0.00,VWS V14.01,2013-03-09 21:23:00,
2013-03-09 15:28:00,69.9,62.4,29.76,SSE,158,5.6,5.6,77,0.00,,---,0.00,VWS V14.01,2013-03-09 21:28:00,
2013-03-09 15:33:00,71.0,62.7,29.76,South,180,11.2,11.2,75,0.00,,---,0.00,VWS V14.01,2013-03-09 21:33:00,
2013-03-09 15:38:00,70.1,62.2,29.76,South,180,3.4,6.5,76,0.00,,---,0.00,VWS V14.01,2013-03-09 21:38:00,
2013-03-09 15:43:00,70.1,61.8,29.76,SE,135,6.5,8.7,75,0.00,,---,0.00,VWS V14.01,2013-03-09 21:43:00,
2013-03-09 15:48:00,71.0,62.7,29.76,South,180,4.5,4.5,75,0.00,,---,0.00,VWS V14.01,2013-03-09 21:48:00,
2013-03-09 15:53:00,71.3,62.2,29.76,South,180,6.3,9.6,73,0.00,,---,0.00,VWS V14.01,2013-03-09 21:53:00,
2013-03-09 15:58:00,72.0,62.5,29.76,SE,135,12.5,12.5,72,0.00,,---,0.00,VWS V14.01,2013-03-09 21:58:00,
2013-03-09 16:03:00,71.7,61.8,29.76,East,90,10.1,10.1,71,0.00,,---,0.00,VWS V14.01,2013-03-09 22:03:00,
2013-03-09 16:08:00,72.6,62.2,29.76,SE,135,9.8,9.8,70,0.00,,---,0.00,VWS V14.01,2013-03-09 22:08:00,
2013-03-09 16:13:00,72.9,62.2,29.76,SE,135,9.6,10.7,69,0.00,,---,0.00,VWS V14.01,2013-03-09 22:13:00,
2013-03-09 16:18:00,72.6,61.8,29.76,SE,135,8.1,8.1,69,0.00,,---,0.00,VWS V14.01,2013-03-09 22:18:00,
2013-03-09 16:23:00,72.4,62.1,29.76,SE,135,14.3,14.3,70,0.00,,---,0.00,VWS V14.01,2013-03-09 22:23:00,
2013-03-09 16:28:00,71.9,61.6,29.76,South,180,6.7,12.3,70,0.00,,---,0.00,VWS V14.01,2013-03-09 22:28:00,
2013-03-09 16:33:00,70.8,60.9,29.76,SSE,158,6.5,6.5,71,0.00,,---,0.00,VWS V14.01,2013-03-09 22:33:00,
2013-03-09 16:38:00,70.6,61.2,29.76,SE,135,12.1,14.3,72,0.00,,---,0.00,VWS V14.01,2013-03-09 22:38:00,
2013-03-09 16:43:00,70.4,61.8,29.76,SE,135,7.8,7.8,74,0.00,,---,0.00,VWS V14.01,2013-03-09 22:43:00,
2013-03-09 16:48:00,69.9,61.6,29.76,SE,135,9.8,9.8,75,0.00,,---,0.00,VWS V14.01,2013-03-09 22:48:00,
2013-03-09 16:53:00,69.7,61.5,29.76,ESE,112,3.8,5.8,75,0.00,,---,0.00,VWS V14.01,2013-03-09 22:53:00,
2013-03-09 16:58:00,69.9,61.6,29.76,SE,135,7.6,7.6,75,0.00,,---,0.00,VWS V14.01,2013-03-09 22:58:00,
2013-03-09 17:03:00,70.4,61.8,29.76,South,180,7.2,10.5,74,0.00,,---,0.00,VWS V14.01,2013-03-09 23:03:00,
2013-03-09 17:08:00,71.3,61.8,29.76,SSE,158,7.8,7.8,72,0.00,,---,0.00,VWS V14.01,2013-03-09 23:08:00,
2013-03-09 17:13:00,71.7,61.8,29.76,SE,135,7.6,7.6,71,0.00,,---,0.00,VWS V14.01,2013-03-09 23:13:00,
2013-03-09 17:18:00,71.0,61.1,29.76,SE,135,7.8,10.3,71,0.00,,---,0.00,VWS V14.01,2013-03-09 23:18:00,
2013-03-09 17:23:00,70.4,61.0,29.74,SE,135,8.1,8.1,72,0.00,,---,0.00,VWS V14.01,2013-03-09 23:23:00,
2013-03-09 17:28:00,70.3,61.2,29.74,SSE,158,12.5,12.5,73,0.00,,---,0.00,VWS V14.01,2013-03-09 23:28:00,
2013-03-09 17:33:00,70.1,61.0,29.74,SE,135,8.1,8.1,73,0.00,,---,0.00,VWS V14.01,2013-03-09 23:33:00,
2013-03-09 17:38:00,69.9,60.9,29.76,SE,135,6.3,11.9,73,0.00,,---,0.00,VWS V14.01,2013-03-09 23:38:00,
2013-03-09 17:43:00,69.7,61.1,29.76,SE,135,3.4,6.5,74,0.00,,---,0.00,VWS V14.01,2013-03-09 23:43:00,
2013-03-09 17:48:00,69.7,61.1,29.76,SSE,158,7.2,7.2,74,0.00,,---,0.00,VWS V14.01,2013-03-09 23:48:00,
2013-03-09 17:53:00,69.6,60.9,29.74,SSE,158,3.4,5.6,74,0.00,,---,0.00,VWS V14.01,2013-03-09 23:53:00,
2013-03-09 17:58:00,69.4,61.1,29.74,South,180,5.8,8.5,75,0.00,,---,0.00,VWS V14.01,2013-03-09 23:58:00,
2013-03-09 18:03:00,69.2,61.0,29.74,ESE,112,6.5,8.1,75,0.00,,---,0.00,VWS V14.01,2013-03-10 00:03:00,
2013-03-09 18:08:00,69.2,61.0,29.74,SE,135,8.7,9.2,75,0.00,,---,0.00,VWS V14.01,2013-03-10 00:08:00,
2013-03-09 18:13:00,69.0,61.2,29.74,SE,135,8.7,12.3,76,0.00,,---,0.00,VWS V14.01,2013-03-10 00:13:00,
2013-03-09 18:18:00,68.8,61.0,29.74,South,180,8.7,8.7,76,0.00,,---,0.00,VWS V14.01,2013-03-10 00:18:00,
2013-03-09 18:23:00,68.7,61.2,29.74,SE,135,3.8,10.1,77,0.00,,---,0.00,VWS V14.01,2013-03-10 00:23:00,
2013-03-09 18:28:00,68.5,61.0,29.74,SSE,158,8.1,10.5,77,0.00,,---,0.00,VWS V14.01,2013-03-10 00:28:00,
2013-03-09 18:34:00,68.3,60.8,29.74,South,180,7.6,9.8,77,0.00,,---,0.00,VWS V14.01,2013-03-10 00:34:00,
2013-03-09 18:39:00,67.8,60.7,29.74,ESE,112,6.3,12.5,78,0.00,,---,0.00,VWS V14.01,2013-03-10 00:39:00,
2013-03-09 18:44:00,67.4,60.7,29.74,SSE,158,12.5,12.5,79,0.00,,---,0.00,VWS V14.01,2013-03-10 00:44:00,
2013-03-09 18:49:00,67.4,60.7,29.74,SE,135,8.7,12.3,79,0.00,,---,0.00,VWS V14.01,2013-03-10 00:49:00,
2013-03-09 18:54:00,67.2,60.9,29.74,SE,135,17.0,17.2,80,0.00,,---,0.00,VWS V14.01,2013-03-10 00:54:00,
2013-03-09 18:59:00,67.1,61.1,29.74,South,180,10.5,14.5,81,0.00,,---,0.00,VWS V14.01,2013-03-10 00:59:00,
2013-03-09 19:04:00,66.9,60.9,29.71,ESE,112,8.1,8.5,81,0.00,,---,0.00,VWS V14.01,2013-03-10 01:04:00,
2013-03-09 19:09:00,66.9,60.9,29.71,ESE,112,6.5,9.8,81,0.00,,---,0.00,VWS V14.01,2013-03-10 01:09:00,
2013-03-09 19:14:00,66.7,60.7,29.71,SE,135,5.8,9.6,81,0.00,,---,0.00,VWS V14.01,2013-03-10 01:14:00,
2013-03-09 19:19:00,66.7,61.1,29.71,SE,135,9.6,9.6,82,0.00,,---,0.00,VWS V14.01,2013-03-10 01:19:00,
2013-03-09 19:24:00,66.7,61.1,29.71,SE,135,12.1,12.1,82,0.00,,---,0.00,VWS V14.01,2013-03-10 01:24:00,
2013-03-09 19:29:00,66.4,60.7,29.71,ESE,112,6.7,6.7,82,0.00,,---,0.00,VWS V14.01,2013-03-10 01:29:00,
2013-03-09 19:34:00,66.4,61.0,29.71,SE,135,12.5,12.5,83,0.00,,---,0.00,VWS V14.01,2013-03-10 01:34:00,
2013-03-09 19:39:00,66.4,61.0,29.71,South,180,8.7,8.7,83,0.00,,---,0.00,VWS V14.01,2013-03-10 01:39:00,
2013-03-09 19:44:00,66.4,61.0,29.71,SSE,158,6.5,8.1,83,0.00,,---,0.00,VWS V14.01,2013-03-10 01:44:00,
2013-03-09 19:49:00,66.2,60.9,29.68,SSE,158,13.4,13.4,83,0.00,,---,0.00,VWS V14.01,2013-03-10 01:49:00,
2013-03-09 19:54:00,66.2,60.9,29.68,ESE,112,12.5,12.8,83,0.00,,---,0.00,VWS V14.01,2013-03-10 01:54:00,
2013-03-09 19:59:00,66.2,60.9,29.68,SE,135,6.0,8.5,83,0.00,,---,0.00,VWS V14.01,2013-03-10 01:59:00,
2013-03-09 20:04:00,66.2,60.9,29.68,ESE,112,9.8,11.0,83,0.00,,---,0.00,VWS V14.01,2013-03-10 02:04:00,
2013-03-09 20:09:00,66.2,60.9,29.68,SSE,158,7.4,8.1,83,0.00,,---,0.00,VWS V14.01,2013-03-10 02:09:00,
2013-03-09 20:14:00,66.2,60.9,29.68,SE,135,4.9,4.9,83,0.00,,---,0.00,VWS V14.01,2013-03-10 02:14:00,
2013-03-09 20:19:00,66.2,60.9,29.68,SE,135,5.8,5.8,83,0.00,,---,0.00,VWS V14.01,2013-03-10 02:19:00,
2013-03-09 20:24:00,66.2,61.2,29.68,SE,135,5.6,11.0,84,0.00,,---,0.00,VWS V14.01,2013-03-10 02:24:00,
2013-03-09 20:29:00,66.2,60.9,29.68,South,180,4.0,4.9,83,0.00,,---,0.00,VWS V14.01,2013-03-10 02:29:00,
2013-03-09 20:34:00,66.2,61.2,29.71,SSE,158,7.2,7.2,84,0.00,,---,0.00,VWS V14.01,2013-03-10 02:34:00,
2013-03-09 20:39:00,66.0,61.0,29.71,SSE,158,9.4,9.4,84,0.00,,---,0.00,VWS V14.01,2013-03-10 02:39:00,
2013-03-09 20:44:00,66.0,61.0,29.71,SSE,158,6.5,10.3,84,0.00,,---,0.00,VWS V14.01,2013-03-10 02:44:00,
2013-03-09 20:49:00,65.8,60.9,29.71,ESE,112,13.9,13.9,84,0.00,,---,0.00,VWS V14.01,2013-03-10 02:49:00,
2013-03-09 20:54:00,65.8,61.2,29.71,SE,135,8.7,11.0,85,0.00,,---,0.00,VWS V14.01,2013-03-10 02:54:00,
2013-03-09 20:59:00,65.7,61.0,29.71,South,180,11.0,16.8,85,0.00,,---,0.00,VWS V14.01,2013-03-10 02:59:00,
2013-03-09 21:04:00,65.7,61.0,29.71,SE,135,3.8,8.1,85,0.00,,---,0.00,VWS V14.01,2013-03-10 03:04:00,
2013-03-09 21:09:00,65.7,61.0,29.71,ENE,68,4.0,4.7,85,0.00,,---,0.00,VWS V14.01,2013-03-10 03:09:00,
2013-03-09 21:14:00,65.5,60.9,29.71,SE,135,6.3,6.3,85,0.00,,---,0.00,VWS V14.01,2013-03-10 03:14:00,
2013-03-09 21:19:00,65.5,60.9,29.74,South,180,7.4,8.1,85,0.00,,---,0.00,VWS V14.01,2013-03-10 03:19:00,
2013-03-09 21:24:00,65.5,61.2,29.74,East,90,3.8,6.5,86,0.00,,---,0.00,VWS V14.01,2013-03-10 03:24:00,
2013-03-09 21:29:00,65.5,61.2,29.74,SE,135,7.6,7.6,86,0.00,,---,0.00,VWS V14.01,2013-03-10 03:29:00,
2013-03-09 21:34:00,65.3,61.3,29.71,SE,135,6.5,13.0,87,0.00,,---,0.00,VWS V14.01,2013-03-10 03:34:00,
2013-03-09 21:39:00,65.3,61.3,29.71,ESE,112,9.8,10.7,87,0.00,,---,0.00,VWS V14.01,2013-03-10 03:39:00,
2013-03-09 21:44:00,65.1,61.2,29.71,ESE,112,7.8,7.8,87,0.00,,---,0.00,VWS V14.01,2013-03-10 03:44:00,
2013-03-09 21:49:00,65.1,61.2,29.71,NE,45,3.1,7.8,87,0.00,,---,0.00,VWS V14.01,2013-03-10 03:49:00,
2013-03-09 21:54:00,64.9,61.0,29.71,SE,135,5.6,6.3,87,0.00,,---,0.00,VWS V14.01,2013-03-10 03:54:00,
2013-03-09 21:59:00,64.9,61.3,29.71,ESE,112,5.4,7.6,88,0.00,,---,0.00,VWS V14.01,2013-03-10 03:59:00,
2013-03-09 22:04:00,64.9,61.3,29.71,SE,135,3.4,6.0,88,0.00,,---,0.00,VWS V14.01,2013-03-10 04:04:00,
2013-03-09 22:09:00,64.9,61.3,29.71,East,90,3.1,7.4,88,0.00,,---,0.00,VWS V14.01,2013-03-10 04:09:00,
2013-03-09 22:14:00,64.9,61.3,29.71,South,180,6.3,10.1,88,0.00,,---,0.00,VWS V14.01,2013-03-10 04:14:00,
2013-03-09 22:19:00,64.9,61.3,29.74,East,90,5.4,5.4,88,0.00,,---,0.00,VWS V14.01,2013-03-10 04:19:00,
2013-03-09 22:24:00,64.8,61.1,29.74,East,90,2.9,9.4,88,0.00,,---,0.00,VWS V14.01,2013-03-10 04:24:00,
2013-03-09 22:29:00,64.6,61.3,29.74,SE,135,6.0,14.8,89,0.00,,---,0.00,VWS V14.01,2013-03-10 04:29:00,
2013-03-09 22:34:00,64.2,61.2,29.71,SSE,158,8.5,9.2,90,0.00,,---,0.00,VWS V14.01,2013-03-10 04:34:00,
2013-03-09 22:39:00,64.1,61.1,29.71,South,180,3.6,9.8,90,0.00,,---,0.00,VWS V14.01,2013-03-10 04:39:00,
2013-03-09 22:44:00,63.9,61.2,29.71,SE,135,4.9,4.9,91,0.00,,---,0.00,VWS V14.01,2013-03-10 04:44:00,
2013-03-09 22:49:00,63.9,61.2,29.74,WSW,248,1.3,3.8,91,0.00,,---,0.00,VWS V14.01,2013-03-10 04:49:00,
2013-03-09 22:54:00,63.9,61.2,29.74,SW,225,6.3,6.3,91,0.00,,---,0.00,VWS V14.01,2013-03-10 04:54:00,
2013-03-09 22:59:00,63.9,61.5,29.74,SSW,202,6.0,6.0,92,0.00,,---,0.00,VWS V14.01,2013-03-10 04:59:00,
2013-03-09 23:00:00,63.9,61.5,29.74,SSW,202,6.0,6.0,92,0.00,,---,0.00,VWS V14.01,2013-03-10 05:00:00,
2013-03-09 23:05:00,63.5,61.2,29.76,SE,135,0.0,1.1,92,0.04,,---,0.04,VWS V14.01,2013-03-10 05:05:00,
2013-03-09 23:10:00,63.3,61.3,29.76,North,0,7.6,7.6,93,0.08,,---,0.08,VWS V14.01,2013-03-10 05:10:00,
2013-03-09 23:15:00,63.3,61.6,29.76,WNW,292,5.8,5.8,94,0.16,,---,0.16,VWS V14.01,2013-03-10 05:15:00,
2013-03-09 23:20:00,61.9,59.6,29.76,West,270,5.4,7.8,92,0.29,,---,0.29,VWS V14.01,2013-03-10 05:20:00,
2013-03-09 23:25:00,61.0,58.7,29.76,South,180,4.3,7.2,92,0.45,,---,0.45,VWS V14.01,2013-03-10 05:25:00,
2013-03-09 23:30:00,60.2,58.1,29.76,NW,315,3.4,7.4,93,0.58,,---,0.58,VWS V14.01,2013-03-10 05:30:00,
2013-03-09 23:35:00,59.8,58.1,29.82,NW,315,6.0,8.7,94,0.62,,---,0.62,VWS V14.01,2013-03-10 05:35:00,
2013-03-09 23:40:00,59.6,58.2,29.82,West,270,5.6,5.8,95,0.66,,---,0.66,VWS V14.01,2013-03-10 05:40:00,
2013-03-09 23:45:00,59.5,58.3,29.82,NNW,338,5.8,6.5,96,0.66,,---,0.66,VWS V14.01,2013-03-10 05:45:00,
2013-03-09 23:50:00,59.5,58.3,29.76,NW,315,4.3,6.5,96,0.66,,---,0.00,VWS V14.01,2013-03-10 05:50:00,
2013-03-09 23:55:00,59.3,58.1,29.76,NW,315,5.4,5.4,96,0.66,,---,0.00,VWS V14.01,2013-03-10 05:55:00,